sensor_id;sensor_type;location;lat;lon;timestamp;temperature;humidity
20839;DHT22;10580;51.092;6.828;2024-01-10T00:01:34;-5.30;99.90
20839;DHT22;10580;51.092;6.828;2024-01-10T00:04:00;-5.30;99.90
20839;DHT22;10580;51.092;6.828;2024-01-10T00:06:25;-5.30;99.90
20839;DHT22;10580;51.092;6.828;2024-01-10T00:08:53;-5.30;99.90
20839;DHT22;10580;51.092;6.828;2024-01-10T00:11:19;-5.30;99.90
20839;DHT22;10580;51.092;6.828;2024-01-10T00:13:45;-5.30;99.90
20839;DHT22;10580;51.092;6.828;2024-01-10T00:16:14;-5.30;99.90
20839;DHT22;10580;51.092;6.828;2024-01-10T00:18:43;-5.30;99.90
20839;DHT22;10580;51.092;6.828;2024-01-10T00:21:11;-5.30;99.90
20839;DHT22;10580;51.092;6.828;2024-01-10T00:23:36;-5.30;99.90
20839;DHT22;10580;51.092;6.828;2024-01-10T00:26:02;-5.30;99.90
20839;DHT22;10580;51.092;6.828;2024-01-10T00:28:28;-5.30;99.90
20839;DHT22;10580;51.092;6.828;2024-01-10T00:30:54;-5.30;99.90
20839;DHT22;10580;51.092;6.828;2024-01-10T00:33:25;-5.30;99.90
20839;DHT22;10580;51.092;6.828;2024-01-10T00:35:50;-5.40;99.90
20839;DHT22;10580;51.092;6.828;2024-01-10T00:38:19;-5.30;99.90
20839;DHT22;10580;51.092;6.828;2024-01-10T00:40:45;-5.40;99.90
20839;DHT22;10580;51.092;6.828;2024-01-10T00:43:11;-5.40;99.90
20839;DHT22;10580;51.092;6.828;2024-01-10T00:45:36;-5.40;99.90
20839;DHT22;10580;51.092;6.828;2024-01-10T00:48:05;-5.40;99.90
20839;DHT22;10580;51.092;6.828;2024-01-10T00:50:31;-5.40;99.90
20839;DHT22;10580;51.092;6.828;2024-01-10T00:53:01;-5.40;99.90
20839;DHT22;10580;51.092;6.828;2024-01-10T00:55:27;-5.50;99.90
20839;DHT22;10580;51.092;6.828;2024-01-10T00:57:53;-5.50;99.90
20839;DHT22;10580;51.092;6.828;2024-01-10T01:00:19;-5.50;99.90
20839;DHT22;10580;51.092;6.828;2024-01-10T01:02:44;-5.50;1.00
20839;DHT22;10580;51.092;6.828;2024-01-10T01:05:13;-5.60;1.00
20839;DHT22;10580;51.092;6.828;2024-01-10T01:07:38;-5.60;1.00
20839;DHT22;10580;51.092;6.828;2024-01-10T01:10:05;-5.60;1.00
20839;DHT22;10580;51.092;6.828;2024-01-10T01:12:31;-5.60;1.00
20839;DHT22;10580;51.092;6.828;2024-01-10T01:14:56;-5.70;1.00
20839;DHT22;10580;51.092;6.828;2024-01-10T01:17:25;-5.70;1.00
20839;DHT22;10580;51.092;6.828;2024-01-10T01:19:50;-5.70;1.00
20839;DHT22;10580;51.092;6.828;2024-01-10T01:22:16;-5.70;1.00
20839;DHT22;10580;51.092;6.828;2024-01-10T01:24:42;-5.80;1.00
20839;DHT22;10580;51.092;6.828;2024-01-10T01:27:07;-5.80;1.00
20839;DHT22;10580;51.092;6.828;2024-01-10T01:29:33;-5.80;1.00
20839;DHT22;10580;51.092;6.828;2024-01-10T01:32:02;-5.90;1.00
20839;DHT22;10580;51.092;6.828;2024-01-10T01:34:27;-5.90;15.60
20839;DHT22;10580;51.092;6.828;2024-01-10T01:36:56;-5.90;38.80
20839;DHT22;10580;51.092;6.828;2024-01-10T01:39:22;-6.00;99.90
20839;DHT22;10580;51.092;6.828;2024-01-10T01:41:47;-6.00;99.90
20839;DHT22;10580;51.092;6.828;2024-01-10T01:44:13;-6.00;99.90
20839;DHT22;10580;51.092;6.828;2024-01-10T01:46:39;-6.10;99.90
20839;DHT22;10580;51.092;6.828;2024-01-10T01:49:10;-6.10;99.90
20839;DHT22;10580;51.092;6.828;2024-01-10T01:51:37;-6.10;99.90
20839;DHT22;10580;51.092;6.828;2024-01-10T01:54:07;-6.20;99.90
20839;DHT22;10580;51.092;6.828;2024-01-10T01:56:37;-6.20;99.90
20839;DHT22;10580;51.092;6.828;2024-01-10T01:59:04;-6.20;99.90
20839;DHT22;10580;51.092;6.828;2024-01-10T02:01:30;-6.20;99.90
20839;DHT22;10580;51.092;6.828;2024-01-10T02:03:56;-6.20;99.90
20839;DHT22;10580;51.092;6.828;2024-01-10T02:06:22;-6.30;99.90
20839;DHT22;10580;51.092;6.828;2024-01-10T02:08:50;-6.30;99.90
20839;DHT22;10580;51.092;6.828;2024-01-10T02:11:17;-6.30;99.90
20839;DHT22;10580;51.092;6.828;2024-01-10T02:13:44;-6.30;99.90
20839;DHT22;10580;51.092;6.828;2024-01-10T02:16:10;-6.30;99.90
20839;DHT22;10580;51.092;6.828;2024-01-10T02:18:38;-6.30;99.90
20839;DHT22;10580;51.092;6.828;2024-01-10T02:21:03;-6.40;99.90
20839;DHT22;10580;51.092;6.828;2024-01-10T02:23:29;-6.40;99.90
20839;DHT22;10580;51.092;6.828;2024-01-10T02:25:55;-6.40;99.90
20839;DHT22;10580;51.092;6.828;2024-01-10T02:28:21;-6.40;1.00
20839;DHT22;10580;51.092;6.828;2024-01-10T02:30:49;-6.40;1.00
20839;DHT22;10580;51.092;6.828;2024-01-10T02:33:15;-6.40;1.00
20839;DHT22;10580;51.092;6.828;2024-01-10T02:35:41;-6.40;1.00
20839;DHT22;10580;51.092;6.828;2024-01-10T02:38:07;-6.40;1.00
20839;DHT22;10580;51.092;6.828;2024-01-10T02:40:35;-6.40;1.00
20839;DHT22;10580;51.092;6.828;2024-01-10T02:43:00;-6.40;1.00
20839;DHT22;10580;51.092;6.828;2024-01-10T02:45:29;-6.40;1.00
20839;DHT22;10580;51.092;6.828;2024-01-10T02:47:55;-6.50;1.00
20839;DHT22;10580;51.092;6.828;2024-01-10T02:50:21;-6.50;1.00
20839;DHT22;10580;51.092;6.828;2024-01-10T02:52:46;-6.50;1.00
20839;DHT22;10580;51.092;6.828;2024-01-10T02:55:12;-6.60;1.00
20839;DHT22;10580;51.092;6.828;2024-01-10T02:57:38;-6.60;1.00
20839;DHT22;10580;51.092;6.828;2024-01-10T03:00:04;-6.60;1.00
20839;DHT22;10580;51.092;6.828;2024-01-10T03:02:31;-6.60;1.00
20839;DHT22;10580;51.092;6.828;2024-01-10T03:04:57;-6.70;1.00
20839;DHT22;10580;51.092;6.828;2024-01-10T03:07:22;-6.70;1.00
20839;DHT22;10580;51.092;6.828;2024-01-10T03:09:50;-6.70;1.00
20839;DHT22;10580;51.092;6.828;2024-01-10T03:12:16;-6.80;1.00
20839;DHT22;10580;51.092;6.828;2024-01-10T03:14:42;-6.80;1.00
20839;DHT22;10580;51.092;6.828;2024-01-10T03:17:07;-6.80;1.00
20839;DHT22;10580;51.092;6.828;2024-01-10T03:19:33;-6.80;1.00
20839;DHT22;10580;51.092;6.828;2024-01-10T03:21:59;-6.70;1.00
20839;DHT22;10580;51.092;6.828;2024-01-10T03:24:24;-6.70;1.00
20839;DHT22;10580;51.092;6.828;2024-01-10T03:26:52;-6.70;1.00
20839;DHT22;10580;51.092;6.828;2024-01-10T03:29:20;-6.70;1.00
20839;DHT22;10580;51.092;6.828;2024-01-10T03:31:46;-6.70;1.00
20839;DHT22;10580;51.092;6.828;2024-01-10T03:34:14;-6.80;1.00
20839;DHT22;10580;51.092;6.828;2024-01-10T03:36:42;-6.70;1.00
20839;DHT22;10580;51.092;6.828;2024-01-10T03:39:08;-6.80;1.00
20839;DHT22;10580;51.092;6.828;2024-01-10T03:41:34;-6.80;1.00
20839;DHT22;10580;51.092;6.828;2024-01-10T03:44:00;-6.80;1.00
20839;DHT22;10580;51.092;6.828;2024-01-10T03:46:25;-6.80;1.00
20839;DHT22;10580;51.092;6.828;2024-01-10T03:48:51;-6.80;1.00
20839;DHT22;10580;51.092;6.828;2024-01-10T03:51:18;-6.80;1.00
20839;DHT22;10580;51.092;6.828;2024-01-10T03:53:45;-6.90;1.00
20839;DHT22;10580;51.092;6.828;2024-01-10T03:56:12;-6.90;1.00
20839;DHT22;10580;51.092;6.828;2024-01-10T03:58:37;-6.80;1.00
20839;DHT22;10580;51.092;6.828;2024-01-10T04:01:07;-6.80;1.00
20839;DHT22;10580;51.092;6.828;2024-01-10T04:03:34;-6.80;1.00
20839;DHT22;10580;51.092;6.828;2024-01-10T04:06:00;-6.80;1.00
20839;DHT22;10580;51.092;6.828;2024-01-10T04:08:26;-6.80;1.00
20839;DHT22;10580;51.092;6.828;2024-01-10T04:10:52;-6.80;1.00
20839;DHT22;10580;51.092;6.828;2024-01-10T04:13:17;-6.80;1.00
20839;DHT22;10580;51.092;6.828;2024-01-10T04:15:43;-6.80;1.00
20839;DHT22;10580;51.092;6.828;2024-01-10T04:18:09;-6.90;1.00
20839;DHT22;10580;51.092;6.828;2024-01-10T04:20:34;-6.90;1.00
20839;DHT22;10580;51.092;6.828;2024-01-10T04:23:03;-6.90;1.00
20839;DHT22;10580;51.092;6.828;2024-01-10T04:25:29;-6.90;1.00
20839;DHT22;10580;51.092;6.828;2024-01-10T04:27:54;-6.90;1.00
20839;DHT22;10580;51.092;6.828;2024-01-10T04:30:22;-6.90;1.00
20839;DHT22;10580;51.092;6.828;2024-01-10T04:32:48;-6.80;1.00
20839;DHT22;10580;51.092;6.828;2024-01-10T04:35:16;-6.80;11.10
20839;DHT22;10580;51.092;6.828;2024-01-10T04:37:42;-6.90;19.40
20839;DHT22;10580;51.092;6.828;2024-01-10T04:40:08;-6.80;1.00
20839;DHT22;10580;51.092;6.828;2024-01-10T04:42:34;-6.80;1.00
20839;DHT22;10580;51.092;6.828;2024-01-10T04:45:00;-6.80;31.40
20839;DHT22;10580;51.092;6.828;2024-01-10T04:47:25;-6.80;99.90
20839;DHT22;10580;51.092;6.828;2024-01-10T04:49:51;-6.80;99.90
20839;DHT22;10580;51.092;6.828;2024-01-10T04:52:17;-6.80;17.20
20839;DHT22;10580;51.092;6.828;2024-01-10T04:54:45;-6.80;1.80
20839;DHT22;10580;51.092;6.828;2024-01-10T04:57:11;-6.80;1.00
20839;DHT22;10580;51.092;6.828;2024-01-10T04:59:37;-6.80;2.70
20839;DHT22;10580;51.092;6.828;2024-01-10T05:02:02;-6.80;28.60
20839;DHT22;10580;51.092;6.828;2024-01-10T05:04:28;-6.90;20.00
20839;DHT22;10580;51.092;6.828;2024-01-10T05:06:54;-6.80;10.50
20839;DHT22;10580;51.092;6.828;2024-01-10T05:09:19;-6.90;24.70
20839;DHT22;10580;51.092;6.828;2024-01-10T05:11:45;-6.90;42.60
20839;DHT22;10580;51.092;6.828;2024-01-10T05:14:16;-6.90;24.30
20839;DHT22;10580;51.092;6.828;2024-01-10T05:16:41;-6.90;53.80
20839;DHT22;10580;51.092;6.828;2024-01-10T05:19:07;-6.90;98.10
20839;DHT22;10580;51.092;6.828;2024-01-10T05:21:33;-6.90;99.90
20839;DHT22;10580;51.092;6.828;2024-01-10T05:23:59;-6.90;99.90
20839;DHT22;10580;51.092;6.828;2024-01-10T05:26:24;-6.80;42.50
20839;DHT22;10580;51.092;6.828;2024-01-10T05:28:50;-6.70;1.00
20839;DHT22;10580;51.092;6.828;2024-01-10T05:31:15;-6.70;1.00
20839;DHT22;10580;51.092;6.828;2024-01-10T05:33:41;-6.60;1.00
20839;DHT22;10580;51.092;6.828;2024-01-10T05:36:08;-6.60;1.00
20839;DHT22;10580;51.092;6.828;2024-01-10T05:38:37;-6.50;1.00
20839;DHT22;10580;51.092;6.828;2024-01-10T05:41:02;-6.40;1.00
20839;DHT22;10580;51.092;6.828;2024-01-10T05:43:28;-6.40;1.00
20839;DHT22;10580;51.092;6.828;2024-01-10T05:45:53;-6.40;1.00
20839;DHT22;10580;51.092;6.828;2024-01-10T05:48:19;-6.40;1.00
20839;DHT22;10580;51.092;6.828;2024-01-10T05:50:45;-6.40;99.90
20839;DHT22;10580;51.092;6.828;2024-01-10T05:53:10;-6.40;99.90
20839;DHT22;10580;51.092;6.828;2024-01-10T05:55:37;-6.40;99.90
20839;DHT22;10580;51.092;6.828;2024-01-10T05:58:04;-6.40;99.90
20839;DHT22;10580;51.092;6.828;2024-01-10T06:00:30;-6.40;99.90
20839;DHT22;10580;51.092;6.828;2024-01-10T06:02:55;-6.30;99.90
20839;DHT22;10580;51.092;6.828;2024-01-10T06:05:21;-6.30;99.90
20839;DHT22;10580;51.092;6.828;2024-01-10T06:07:47;-6.30;99.90
20839;DHT22;10580;51.092;6.828;2024-01-10T06:10:12;-6.30;99.90
20839;DHT22;10580;51.092;6.828;2024-01-10T06:12:38;-6.40;99.90
20839;DHT22;10580;51.092;6.828;2024-01-10T06:15:04;-6.30;99.90
20839;DHT22;10580;51.092;6.828;2024-01-10T06:17:30;-6.40;99.90
20839;DHT22;10580;51.092;6.828;2024-01-10T06:19:57;-6.40;99.90
20839;DHT22;10580;51.092;6.828;2024-01-10T06:22:24;-6.40;1.00
20839;DHT22;10580;51.092;6.828;2024-01-10T06:24:50;-6.40;1.00
20839;DHT22;10580;51.092;6.828;2024-01-10T06:27:16;-6.40;1.00
20839;DHT22;10580;51.092;6.828;2024-01-10T06:29:44;-6.40;1.00
20839;DHT22;10580;51.092;6.828;2024-01-10T06:32:10;-6.50;1.00
20839;DHT22;10580;51.092;6.828;2024-01-10T06:34:36;-6.50;1.00
20839;DHT22;10580;51.092;6.828;2024-01-10T06:37:02;-6.50;1.00
20839;DHT22;10580;51.092;6.828;2024-01-10T06:39:27;-6.50;1.00
20839;DHT22;10580;51.092;6.828;2024-01-10T06:41:53;-6.50;1.00
20839;DHT22;10580;51.092;6.828;2024-01-10T06:44:18;-6.50;1.00
20839;DHT22;10580;51.092;6.828;2024-01-10T06:46:44;-6.40;1.00
20839;DHT22;10580;51.092;6.828;2024-01-10T06:49:10;-6.40;1.00
20839;DHT22;10580;51.092;6.828;2024-01-10T06:51:36;-6.40;1.00
20839;DHT22;10580;51.092;6.828;2024-01-10T06:54:02;-6.40;1.00
20839;DHT22;10580;51.092;6.828;2024-01-10T06:56:31;-6.40;1.00
20839;DHT22;10580;51.092;6.828;2024-01-10T06:58:59;-6.50;1.00
20839;DHT22;10580;51.092;6.828;2024-01-10T07:01:26;-6.40;1.00
20839;DHT22;10580;51.092;6.828;2024-01-10T07:03:55;-6.50;1.00
20839;DHT22;10580;51.092;6.828;2024-01-10T07:06:21;-6.50;1.00
20839;DHT22;10580;51.092;6.828;2024-01-10T07:08:48;-6.50;1.00
20839;DHT22;10580;51.092;6.828;2024-01-10T07:11:14;-6.40;1.00
20839;DHT22;10580;51.092;6.828;2024-01-10T07:13:41;-6.50;1.00
20839;DHT22;10580;51.092;6.828;2024-01-10T07:16:07;-6.40;1.00
20839;DHT22;10580;51.092;6.828;2024-01-10T07:18:33;-6.50;1.00
20839;DHT22;10580;51.092;6.828;2024-01-10T07:20:59;-6.50;1.00
20839;DHT22;10580;51.092;6.828;2024-01-10T07:23:25;-6.40;1.00
20839;DHT22;10580;51.092;6.828;2024-01-10T07:25:51;-6.40;1.00
20839;DHT22;10580;51.092;6.828;2024-01-10T07:28:17;-6.50;1.00
20839;DHT22;10580;51.092;6.828;2024-01-10T07:30:43;-6.50;1.00
20839;DHT22;10580;51.092;6.828;2024-01-10T07:33:10;-6.40;1.00
20839;DHT22;10580;51.092;6.828;2024-01-10T07:35:35;-6.50;1.00
20839;DHT22;10580;51.092;6.828;2024-01-10T07:38:01;-6.50;1.00
20839;DHT22;10580;51.092;6.828;2024-01-10T07:40:27;-6.50;1.00
20839;DHT22;10580;51.092;6.828;2024-01-10T07:42:52;-6.50;1.00
20839;DHT22;10580;51.092;6.828;2024-01-10T07:45:18;-6.40;1.00
20839;DHT22;10580;51.092;6.828;2024-01-10T07:47:43;-6.50;1.00
20839;DHT22;10580;51.092;6.828;2024-01-10T07:50:10;-6.40;1.00
20839;DHT22;10580;51.092;6.828;2024-01-10T07:52:36;-6.40;1.00
20839;DHT22;10580;51.092;6.828;2024-01-10T07:55:02;-6.40;1.00
20839;DHT22;10580;51.092;6.828;2024-01-10T07:57:30;-6.40;1.00
20839;DHT22;10580;51.092;6.828;2024-01-10T07:59:56;-6.40;80.40
20839;DHT22;10580;51.092;6.828;2024-01-10T08:02:22;-6.40;99.90
20839;DHT22;10580;51.092;6.828;2024-01-10T08:04:47;-6.30;99.90
20839;DHT22;10580;51.092;6.828;2024-01-10T08:07:13;-6.30;99.90
20839;DHT22;10580;51.092;6.828;2024-01-10T08:09:39;-6.30;99.90
20839;DHT22;10580;51.092;6.828;2024-01-10T08:12:05;-6.30;99.90
20839;DHT22;10580;51.092;6.828;2024-01-10T08:14:30;-6.30;99.90
20839;DHT22;10580;51.092;6.828;2024-01-10T08:16:56;-6.30;99.90
20839;DHT22;10580;51.092;6.828;2024-01-10T08:19:25;-6.20;99.90
20839;DHT22;10580;51.092;6.828;2024-01-10T08:21:52;-6.20;99.90
20839;DHT22;10580;51.092;6.828;2024-01-10T08:24:19;-6.20;99.90
20839;DHT22;10580;51.092;6.828;2024-01-10T08:26:44;-6.10;99.90
20839;DHT22;10580;51.092;6.828;2024-01-10T08:29:10;-6.10;99.90
20839;DHT22;10580;51.092;6.828;2024-01-10T08:31:35;-6.10;99.90
20839;DHT22;10580;51.092;6.828;2024-01-10T08:34:01;-6.10;99.90
20839;DHT22;10580;51.092;6.828;2024-01-10T08:36:26;-6.00;99.90
20839;DHT22;10580;51.092;6.828;2024-01-10T08:38:52;-6.00;99.90
20839;DHT22;10580;51.092;6.828;2024-01-10T08:41:18;-6.00;99.90
20839;DHT22;10580;51.092;6.828;2024-01-10T08:43:46;-5.90;99.90
20839;DHT22;10580;51.092;6.828;2024-01-10T08:46:12;-5.80;99.90
20839;DHT22;10580;51.092;6.828;2024-01-10T08:48:37;-5.70;99.90
20839;DHT22;10580;51.092;6.828;2024-01-10T08:51:03;-5.60;99.90
20839;DHT22;10580;51.092;6.828;2024-01-10T08:53:29;-5.40;99.90
20839;DHT22;10580;51.092;6.828;2024-01-10T08:55:54;-5.10;99.90
20839;DHT22;10580;51.092;6.828;2024-01-10T08:58:20;-4.80;99.90
20839;DHT22;10580;51.092;6.828;2024-01-10T09:00:46;-4.60;1.00
20839;DHT22;10580;51.092;6.828;2024-01-10T09:03:12;-4.20;1.00
20839;DHT22;10580;51.092;6.828;2024-01-10T09:05:37;-4.00;1.00
20839;DHT22;10580;51.092;6.828;2024-01-10T09:08:03;-3.70;99.90
20839;DHT22;10580;51.092;6.828;2024-01-10T09:10:29;-3.30;99.90
20839;DHT22;10580;51.092;6.828;2024-01-10T09:12:55;-2.90;1.00
20839;DHT22;10580;51.092;6.828;2024-01-10T09:15:21;-2.30;1.00
20839;DHT22;10580;51.092;6.828;2024-01-10T09:17:46;-1.80;99.90
20839;DHT22;10580;51.092;6.828;2024-01-10T09:20:12;-1.60;1.00
20839;DHT22;10580;51.092;6.828;2024-01-10T09:22:41;-1.50;1.00
20839;DHT22;10580;51.092;6.828;2024-01-10T09:25:07;-1.30;99.90
20839;DHT22;10580;51.092;6.828;2024-01-10T09:27:34;-1.40;1.00
20839;DHT22;10580;51.092;6.828;2024-01-10T09:30:03;-1.30;1.00
20839;DHT22;10580;51.092;6.828;2024-01-10T09:32:29;-1.10;99.90
20839;DHT22;10580;51.092;6.828;2024-01-10T09:34:55;-0.90;1.00
20839;DHT22;10580;51.092;6.828;2024-01-10T09:37:21;-0.60;1.00
20839;DHT22;10580;51.092;6.828;2024-01-10T09:39:47;-0.40;99.90
20839;DHT22;10580;51.092;6.828;2024-01-10T09:42:14;0.00;1.00
20839;DHT22;10580;51.092;6.828;2024-01-10T09:44:40;0.50;99.90
20839;DHT22;10580;51.092;6.828;2024-01-10T09:47:07;0.90;1.00
20839;DHT22;10580;51.092;6.828;2024-01-10T09:49:33;1.50;1.00
20839;DHT22;10580;51.092;6.828;2024-01-10T09:51:59;2.20;1.00
20839;DHT22;10580;51.092;6.828;2024-01-10T09:54:30;2.70;1.00
20839;DHT22;10580;51.092;6.828;2024-01-10T09:56:57;3.10;1.00
20839;DHT22;10580;51.092;6.828;2024-01-10T09:59:23;2.90;1.00
20839;DHT22;10580;51.092;6.828;2024-01-10T10:01:51;2.20;1.00
20839;DHT22;10580;51.092;6.828;2024-01-10T10:04:17;1.50;1.00
20839;DHT22;10580;51.092;6.828;2024-01-10T10:06:45;0.70;1.00
20839;DHT22;10580;51.092;6.828;2024-01-10T10:09:12;0.60;1.00
20839;DHT22;10580;51.092;6.828;2024-01-10T10:11:37;0.90;1.00
20839;DHT22;10580;51.092;6.828;2024-01-10T10:14:17;1.30;1.00
20839;DHT22;10580;51.092;6.828;2024-01-10T10:16:43;1.40;1.00
20839;DHT22;10580;51.092;6.828;2024-01-10T10:19:08;1.60;1.00
20839;DHT22;10580;51.092;6.828;2024-01-10T10:21:35;1.90;1.00
20839;DHT22;10580;51.092;6.828;2024-01-10T10:24:01;2.10;1.00
20839;DHT22;10580;51.092;6.828;2024-01-10T10:26:28;2.30;1.00
20839;DHT22;10580;51.092;6.828;2024-01-10T10:28:54;2.30;1.00
20839;DHT22;10580;51.092;6.828;2024-01-10T10:31:21;2.60;1.00
20839;DHT22;10580;51.092;6.828;2024-01-10T10:33:49;2.70;1.00
20839;DHT22;10580;51.092;6.828;2024-01-10T10:36:18;2.60;1.00
20839;DHT22;10580;51.092;6.828;2024-01-10T10:38:44;2.50;1.00
20839;DHT22;10580;51.092;6.828;2024-01-10T10:41:13;2.40;1.00
20839;DHT22;10580;51.092;6.828;2024-01-10T10:43:39;2.40;1.00
20839;DHT22;10580;51.092;6.828;2024-01-10T10:46:06;2.10;1.00
20839;DHT22;10580;51.092;6.828;2024-01-10T10:48:36;1.90;1.00
20839;DHT22;10580;51.092;6.828;2024-01-10T10:53:29;2.00;1.00
20839;DHT22;10580;51.092;6.828;2024-01-10T10:55:57;2.10;1.00
20839;DHT22;10580;51.092;6.828;2024-01-10T10:58:22;2.10;1.00
20839;DHT22;10580;51.092;6.828;2024-01-10T11:00:49;2.00;1.00
20839;DHT22;10580;51.092;6.828;2024-01-10T11:03:16;1.70;1.00
20839;DHT22;10580;51.092;6.828;2024-01-10T11:05:43;1.50;1.00
20839;DHT22;10580;51.092;6.828;2024-01-10T11:08:14;1.60;1.00
20839;DHT22;10580;51.092;6.828;2024-01-10T11:10:42;2.10;1.00
20839;DHT22;10580;51.092;6.828;2024-01-10T11:24:13;3.10;1.00
20839;DHT22;10580;51.092;6.828;2024-01-10T11:26:40;2.40;1.00
20839;DHT22;10580;51.092;6.828;2024-01-10T11:29:05;1.80;1.00
20839;DHT22;10580;51.092;6.828;2024-01-10T11:31:32;1.30;1.00
20839;DHT22;10580;51.092;6.828;2024-01-10T11:34:00;0.90;1.00
20839;DHT22;10580;51.092;6.828;2024-01-10T11:36:25;0.70;1.00
20839;DHT22;10580;51.092;6.828;2024-01-10T11:46:47;-0.10;1.00
20839;DHT22;10580;51.092;6.828;2024-01-10T11:49:15;-0.20;1.00
20839;DHT22;10580;51.092;6.828;2024-01-10T11:51:45;-0.30;1.00
20839;DHT22;10580;51.092;6.828;2024-01-10T11:54:12;-0.30;1.00
20839;DHT22;10580;51.092;6.828;2024-01-10T11:56:39;-0.40;1.00
20839;DHT22;10580;51.092;6.828;2024-01-10T11:59:12;-0.50;1.00
20839;DHT22;10580;51.092;6.828;2024-01-10T12:01:41;-0.50;1.00
20839;DHT22;10580;51.092;6.828;2024-01-10T12:04:08;-0.60;1.00
20839;DHT22;10580;51.092;6.828;2024-01-10T12:06:36;-0.60;1.00
20839;DHT22;10580;51.092;6.828;2024-01-10T12:09:02;-0.70;1.00
20839;DHT22;10580;51.092;6.828;2024-01-10T12:11:39;-0.60;1.00
20839;DHT22;10580;51.092;6.828;2024-01-10T12:14:06;-0.40;1.00
20839;DHT22;10580;51.092;6.828;2024-01-10T12:16:35;-0.30;1.00
20839;DHT22;10580;51.092;6.828;2024-01-10T12:19:01;-0.20;1.00
20839;DHT22;10580;51.092;6.828;2024-01-10T12:21:26;-0.20;1.00
20839;DHT22;10580;51.092;6.828;2024-01-10T12:23:52;-0.10;1.00
20839;DHT22;10580;51.092;6.828;2024-01-10T12:26:18;0.00;1.00
20839;DHT22;10580;51.092;6.828;2024-01-10T12:28:54;0.10;1.00
20839;DHT22;10580;51.092;6.828;2024-01-10T12:31:20;0.20;1.00
20839;DHT22;10580;51.092;6.828;2024-01-10T12:33:48;0.20;1.00
20839;DHT22;10580;51.092;6.828;2024-01-10T12:36:17;0.20;1.00
20839;DHT22;10580;51.092;6.828;2024-01-10T12:38:43;0.30;1.00
20839;DHT22;10580;51.092;6.828;2024-01-10T12:41:09;0.30;1.00
20839;DHT22;10580;51.092;6.828;2024-01-10T12:43:36;0.40;1.00
20839;DHT22;10580;51.092;6.828;2024-01-10T12:46:11;0.40;1.00
20839;DHT22;10580;51.092;6.828;2024-01-10T12:48:38;0.40;1.00
20839;DHT22;10580;51.092;6.828;2024-01-10T12:51:07;0.40;1.00
20839;DHT22;10580;51.092;6.828;2024-01-10T12:53:43;0.30;1.00
20839;DHT22;10580;51.092;6.828;2024-01-10T12:56:10;0.10;1.00
20839;DHT22;10580;51.092;6.828;2024-01-10T12:58:40;0.10;1.00
20839;DHT22;10580;51.092;6.828;2024-01-10T13:01:09;0.10;1.00
20839;DHT22;10580;51.092;6.828;2024-01-10T13:03:34;0.10;1.00
20839;DHT22;10580;51.092;6.828;2024-01-10T13:06:00;0.10;1.00
20839;DHT22;10580;51.092;6.828;2024-01-10T13:08:26;0.10;1.00
20839;DHT22;10580;51.092;6.828;2024-01-10T13:10:52;0.20;1.00
20839;DHT22;10580;51.092;6.828;2024-01-10T13:13:19;0.20;1.00
20839;DHT22;10580;51.092;6.828;2024-01-10T13:15:47;0.20;1.00
20839;DHT22;10580;51.092;6.828;2024-01-10T13:18:13;0.30;1.00
20839;DHT22;10580;51.092;6.828;2024-01-10T13:20:40;0.30;1.00
20839;DHT22;10580;51.092;6.828;2024-01-10T13:23:06;0.40;1.00
20839;DHT22;10580;51.092;6.828;2024-01-10T13:25:33;0.40;1.00
20839;DHT22;10580;51.092;6.828;2024-01-10T13:27:59;0.40;1.00
20839;DHT22;10580;51.092;6.828;2024-01-10T13:30:26;0.40;1.00
20839;DHT22;10580;51.092;6.828;2024-01-10T13:32:51;0.40;1.00
20839;DHT22;10580;51.092;6.828;2024-01-10T13:35:17;0.40;1.00
20839;DHT22;10580;51.092;6.828;2024-01-10T13:37:43;0.50;1.00
20839;DHT22;10580;51.092;6.828;2024-01-10T13:40:12;0.40;1.00
20839;DHT22;10580;51.092;6.828;2024-01-10T13:42:47;0.40;1.00
20839;DHT22;10580;51.092;6.828;2024-01-10T13:45:12;0.40;1.00
20839;DHT22;10580;51.092;6.828;2024-01-10T13:47:41;0.40;1.00
20839;DHT22;10580;51.092;6.828;2024-01-10T13:50:07;0.40;99.90
20839;DHT22;10580;51.092;6.828;2024-01-10T13:52:34;0.50;99.90
20839;DHT22;10580;51.092;6.828;2024-01-10T13:55:00;0.40;99.90
20839;DHT22;10580;51.092;6.828;2024-01-10T13:57:26;0.50;99.90
20839;DHT22;10580;51.092;6.828;2024-01-10T13:59:52;0.40;99.90
20839;DHT22;10580;51.092;6.828;2024-01-10T14:02:24;0.50;99.90
20839;DHT22;10580;51.092;6.828;2024-01-10T14:04:50;0.40;76.20
20839;DHT22;10580;51.092;6.828;2024-01-10T14:07:16;0.40;99.90
20839;DHT22;10580;51.092;6.828;2024-01-10T14:09:41;0.40;20.90
20839;DHT22;10580;51.092;6.828;2024-01-10T14:12:07;0.40;1.00
20839;DHT22;10580;51.092;6.828;2024-01-10T14:14:32;0.40;1.00
20839;DHT22;10580;51.092;6.828;2024-01-10T14:16:58;0.40;1.00
20839;DHT22;10580;51.092;6.828;2024-01-10T14:19:24;0.50;1.00
20839;DHT22;10580;51.092;6.828;2024-01-10T14:21:49;0.50;1.00
20839;DHT22;10580;51.092;6.828;2024-01-10T14:24:15;0.50;1.00
20839;DHT22;10580;51.092;6.828;2024-01-10T14:26:41;0.60;1.00
20839;DHT22;10580;51.092;6.828;2024-01-10T14:29:07;0.70;1.00
20839;DHT22;10580;51.092;6.828;2024-01-10T14:31:32;0.70;1.00
20839;DHT22;10580;51.092;6.828;2024-01-10T14:33:58;0.70;1.00
20839;DHT22;10580;51.092;6.828;2024-01-10T14:36:24;0.60;1.00
20839;DHT22;10580;51.092;6.828;2024-01-10T14:38:49;0.60;1.00
20839;DHT22;10580;51.092;6.828;2024-01-10T14:41:16;0.50;1.00
20839;DHT22;10580;51.092;6.828;2024-01-10T14:43:41;0.40;99.90
20839;DHT22;10580;51.092;6.828;2024-01-10T14:46:07;0.30;99.90
20839;DHT22;10580;51.092;6.828;2024-01-10T14:48:33;0.20;99.90
20839;DHT22;10580;51.092;6.828;2024-01-10T14:50:59;0.10;99.90
20839;DHT22;10580;51.092;6.828;2024-01-10T14:53:27;0.00;99.90
20839;DHT22;10580;51.092;6.828;2024-01-10T14:55:53;0.00;99.90
20839;DHT22;10580;51.092;6.828;2024-01-10T14:58:19;-0.10;99.90
20839;DHT22;10580;51.092;6.828;2024-01-10T15:00:45;-0.10;99.90
20839;DHT22;10580;51.092;6.828;2024-01-10T15:03:11;-0.20;99.90
20839;DHT22;10580;51.092;6.828;2024-01-10T15:05:36;-0.20;99.90
20839;DHT22;10580;51.092;6.828;2024-01-10T15:08:02;-0.20;99.90
20839;DHT22;10580;51.092;6.828;2024-01-10T15:10:33;-0.20;99.90
20839;DHT22;10580;51.092;6.828;2024-01-10T15:12:58;-0.20;99.90
20839;DHT22;10580;51.092;6.828;2024-01-10T15:15:24;-0.20;99.90
20839;DHT22;10580;51.092;6.828;2024-01-10T15:17:49;-0.20;1.00
20839;DHT22;10580;51.092;6.828;2024-01-10T15:20:15;-0.20;99.90
20839;DHT22;10580;51.092;6.828;2024-01-10T15:22:41;-0.20;99.90
20839;DHT22;10580;51.092;6.828;2024-01-10T15:25:07;-0.20;1.00
20839;DHT22;10580;51.092;6.828;2024-01-10T15:27:32;-0.20;1.00
20839;DHT22;10580;51.092;6.828;2024-01-10T15:29:58;-0.20;1.00
20839;DHT22;10580;51.092;6.828;2024-01-10T15:32:24;-0.30;1.00
20839;DHT22;10580;51.092;6.828;2024-01-10T15:34:50;-0.30;1.00
20839;DHT22;10580;51.092;6.828;2024-01-10T15:37:16;-0.30;1.00
20839;DHT22;10580;51.092;6.828;2024-01-10T15:39:41;-0.40;1.00
20839;DHT22;10580;51.092;6.828;2024-01-10T15:42:07;-0.40;1.00
20839;DHT22;10580;51.092;6.828;2024-01-10T15:44:38;-0.40;1.00
20839;DHT22;10580;51.092;6.828;2024-01-10T15:47:05;-0.50;1.00
20839;DHT22;10580;51.092;6.828;2024-01-10T15:49:31;-0.50;23.20
20839;DHT22;10580;51.092;6.828;2024-01-10T15:51:56;-0.60;7.90
20839;DHT22;10580;51.092;6.828;2024-01-10T15:54:22;-0.70;99.90
20839;DHT22;10580;51.092;6.828;2024-01-10T15:56:48;-0.80;99.90
20839;DHT22;10580;51.092;6.828;2024-01-10T15:59:14;-0.80;99.90
20839;DHT22;10580;51.092;6.828;2024-01-10T16:01:40;-0.90;99.90